Time;durP1;ratioP1;P1;durP2;ratioP2;P2;SDS_P1;SDS_P2;PMS_P1;PMS_P2;Temp;Humidity;BMP_temperature;BMP_pressure;BME280_temperature;BME280_humidity;BME280_pressure;Samples;Min_cycle;Max_cycle;Signal;HPM_P1;HPM_P2
2022/05/17 00:00:51;;;;;;;15.63;5.03;;;;;;;24.73;72.95;101847.28;5054703;28;20064;-47
2022/05/17 00:03:17;;;;;;;16.40;4.20;;;;;;;24.89;72.23;101848.19;5069240;28;20068;-50
2022/05/17 00:05:44;;;;;;;13.18;4.38;;;;;;;25.06;72.21;101849.88;5057893;28;20071;-49
2022/05/17 00:08:11;;;;;;;15.40;4.87;;;;;;;24.64;72.99;101851.59;5069462;28;20042;-52
2022/05/17 00:10:37;;;;;;;14.20;4.83;;;;;;;25.22;69.93;101853.47;5063489;28;20305;-51
2022/05/17 00:13:03;;;;;;;15.88;5.13;;;;;;;25.45;67.53;101841.16;5062084;28;20294;-53
2022/05/17 00:15:30;;;;;;;15.48;3.63;;;;;;;25.77;65.61;101842.88;5070784;28;20056;-47
2022/05/17 00:17:56;;;;;;;15.43;3.97;;;;;;;25.78;64.79;101846.41;5057881;28;20060;-48
2022/05/17 00:20:23;;;;;;;14.88;3.83;;;;;;;24.69;72.05;101842.59;5067621;28;20305;-48
2022/05/17 00:22:49;;;;;;;20.77;3.70;;;;;;;25.19;68.64;101849.34;5065188;28;20037;-51
2022/05/17 00:25:18;;;;;;;11.93;3.05;;;;;;;24.51;73.64;101844.69;5060248;28;20283;-48
2022/05/17 00:27:44;;;;;;;16.10;4.13;;;;;;;25.24;69.15;101836.75;5071108;28;20037;-49
2022/05/17 00:30:11;;;;;;;15.05;3.80;;;;;;;25.18;68.43;101834.00;5059665;28;20278;-50
2022/05/17 00:32:37;;;;;;;8.77;3.27;;;;;;;25.34;67.67;101839.53;5065006;28;20068;-51
2022/05/17 00:35:03;;;;;;;15.05;4.07;;;;;;;24.92;70.40;101835.88;5054378;28;20278;-49
2022/05/17 00:37:28;;;;;;;11.18;3.67;;;;;;;24.55;74.28;101832.13;5070425;28;20063;-50
2022/05/17 00:39:54;;;;;;;12.60;3.57;;;;;;;25.43;68.90;101837.06;5054934;28;20033;-51
2022/05/17 00:42:19;;;;;;;7.17;3.40;;;;;;;25.10;71.07;101839.19;5064738;28;20290;-50
2022/05/17 00:44:45;;;;;;;16.27;3.87;;;;;;;24.45;75.76;101838.41;5068479;28;20034;-48
2022/05/17 00:47:28;;;;;;;11.30;3.53;;;;;;;25.39;70.15;101833.25;5071980;28;20288;-47
2022/05/17 00:50:24;;;;;;;9.60;3.90;;;;;;;24.76;72.34;101829.50;5061036;28;20369;-49
2022/05/17 00:52:53;;;;;;;12.13;3.97;;;;;;;24.86;74.42;101835.03;5067672;28;20278;-48
2022/05/17 00:55:22;;;;;;;14.57;3.40;;;;;;;24.80;75.08;101840.75;5057233;28;20282;-48
2022/05/17 00:58:07;;;;;;;14.97;5.27;;;;;;;24.08;81.30;101831.06;5074488;28;20266;-49
2022/05/17 01:00:37;;;;;;;15.13;3.80;;;;;;;25.80;68.42;101830.53;5058143;28;20270;-50
2022/05/17 01:03:06;;;;;;;11.90;4.17;;;;;;;25.19;72.74;101827.44;5070153;28;20546;-52
2022/05/17 01:05:40;;;;;;;12.53;3.77;;;;;;;25.02;71.93;101830.44;5061492;28;20335;-47
2022/05/17 01:08:08;;;;;;;15.10;4.30;;;;;;;25.82;68.70;101822.84;5046904;28;20269;-51
2022/05/17 01:10:34;;;;;;;14.53;4.40;;;;;;;25.30;71.55;101832.97;5069443;28;20274;-52
2022/05/17 01:15:45;;;;;;;11.30;3.77;;;;;;;24.68;73.69;101827.28;5059851;28;20034;-51
2022/05/17 01:18:11;;;;;;;18.40;4.22;;;;;;;25.12;72.15;101837.84;5077489;28;20295;-52
2022/05/17 01:20:36;;;;;;;13.30;3.67;;;;;;;25.30;70.79;101832.97;5069280;28;20034;-50
2022/05/17 01:23:02;;;;;;;13.25;4.05;;;;;;;25.11;70.52;101829.88;5069735;28;20239;-48
2022/05/17 01:25:28;;;;;;;12.82;3.92;;;;;;;25.39;70.43;101831.31;5069198;28;20052;-49
2022/05/17 01:28:00;;;;;;;14.00;4.55;;;;;;;24.75;74.02;101834.19;5074415;28;20045;-49
2022/05/17 01:30:28;;;;;;;20.30;4.50;;;;;;;25.00;74.73;101840.81;5064569;28;20060;-53
2022/05/17 01:32:54;;;;;;;13.20;4.17;;;;;;;24.21;78.81;101840.69;5066697;28;20270;-49
2022/05/17 01:35:20;;;;;;;9.90;4.38;;;;;;;24.70;77.40;101834.13;5070934;28;20300;-48
2022/05/17 01:37:50;;;;;;;13.75;4.55;;;;;;;25.29;72.28;101837.59;5060447;28;20034;-48
2022/05/17 01:40:15;;;;;;;9.60;3.60;;;;;;;30.30;48.55;101847.38;5071729;28;20045;-52
2022/05/17 01:42:40;;;;;;;13.53;4.43;;;;;;;26.86;59.23;101844.56;5066362;28;20292;-50
2022/05/17 01:45:06;;;;;;;13.57;4.23;;;;;;;29.24;52.18;101842.25;5064668;28;20033;-51
2022/05/17 01:47:32;;;;;;;16.55;5.00;;;;;;;27.58;56.92;101838.63;5073274;28;20293;-54
2022/05/17 01:49:57;;;;;;;10.88;4.25;;;;;;;25.97;63.00;101837.63;5060012;28;20044;-52
2022/05/17 01:52:23;;;;;;;10.73;4.32;;;;;;;27.60;62.55;101841.91;5069523;28;20038;-48
2022/05/17 01:54:49;;;;;;;13.50;4.60;;;;;;;28.57;53.54;101835.72;5067383;28;20047;-49
2022/05/17 01:57:15;;;;;;;9.77;4.63;;;;;;;28.82;51.85;101846.72;5063270;28;20029;-48
2022/05/17 01:59:40;;;;;;;13.53;4.40;;;;;;;28.32;51.22;101834.09;5073272;28;20105;-51
2022/05/17 02:02:06;;;;;;;10.82;4.32;;;;;;;27.83;53.70;101836.75;5061201;28;20284;-52
2022/05/17 02:04:32;;;;;;;10.75;4.07;;;;;;;27.57;55.05;101842.47;5069100;28;20053;-49
2022/05/17 02:06:59;;;;;;;14.17;4.70;;;;;;;26.33;59.70;101843.09;5068319;28;20063;-49
2022/05/17 02:09:24;;;;;;;15.68;3.85;;;;;;;26.57;59.19;101840.53;5061648;28;20286;-50
2022/05/17 02:11:50;;;;;;;13.87;4.97;;;;;;;26.99;57.39;101846.69;5073050;28;20041;-53
2022/05/17 02:14:15;;;;;;;14.50;4.50;;;;;;;26.72;59.20;101844.31;5056826;28;20037;-50
2022/05/17 02:16:41;;;;;;;13.85;4.88;;;;;;;27.00;60.09;101848.34;5065764;28;20101;-52
2022/05/17 02:19:07;;;;;;;24.30;4.60;;;;;;;26.60;61.01;101847.38;5064091;28;20067;-50
2022/05/17 02:21:35;;;;;;;14.38;5.00;;;;;;;27.12;59.24;101852.66;5072436;28;20096;-53
2022/05/17 02:24:01;;;;;;;12.37;4.33;;;;;;;27.11;57.81;101851.00;5059872;28;20060;-50
2022/05/17 02:26:26;;;;;;;11.45;4.38;;;;;;;28.20;54.11;101848.25;5069574;28;20297;-51
2022/05/17 02:28:52;;;;;;;12.48;4.28;;;;;;;27.47;54.86;101859.03;5067024;28;20176;-51
2022/05/17 02:31:19;;;;;;;;;;;;;;;27.10;57.05;101855.66;5062706;28;20037;-51
2022/05/17 02:33:45;;;;;;;17.50;4.40;;;;;;;26.62;58.79;101856.16;5072929;28;19917;-51
2022/05/17 02:36:11;;;;;;;10.85;4.75;;;;;;;26.33;59.69;101860.34;5060931;28;20274;-53
2022/05/17 02:38:36;;;;;;;15.80;5.57;;;;;;;26.88;57.68;101859.66;5068120;28;20067;-52
2022/05/17 02:41:02;;;;;;;14.65;5.28;;;;;;;27.18;56.95;101860.56;5067805;28;20064;-52
2022/05/17 02:43:27;;;;;;;19.08;5.07;;;;;;;27.77;54.68;101863.44;5060564;28;20045;-52
2022/05/17 02:45:53;;;;;;;13.32;4.35;;;;;;;27.10;55.98;101861.16;5072510;28;20043;-53
2022/05/17 02:48:19;;;;;;;11.48;4.25;;;;;;;27.61;54.64;101859.22;5061969;28;20040;-51
2022/05/17 02:50:44;;;;;;;15.85;5.95;;;;;;;26.55;59.61;101863.88;5066490;28;20083;-52
2022/05/17 02:53:10;;;;;;;15.75;5.05;;;;;;;27.14;57.20;101864.16;5068750;28;20040;-54
2022/05/17 02:55:35;;;;;;;11.93;5.77;;;;;;;27.09;56.95;101877.91;5059735;28;20060;-50
2022/05/17 02:58:01;;;;;;;9.10;4.97;;;;;;;26.27;59.07;101866.13;5072423;28;20111;-50
2022/05/17 03:00:26;;;;;;;10.85;4.43;;;;;;;25.43;64.30;101861.72;5055911;28;20033;-50
2022/05/17 03:02:53;;;;;;;20.35;5.30;;;;;;;26.08;61.47;101858.47;5066036;28;20240;-50
2022/05/17 03:05:18;;;;;;;12.65;4.95;;;;;;;25.70;63.42;101869.69;5061758;28;20040;-54
2022/05/17 03:07:44;;;;;;;19.40;4.72;;;;;;;26.49;60.17;101869.34;5072293;28;20033;-52
2022/05/17 03:10:11;;;;;;;11.60;5.55;;;;;;;26.65;60.20;101876.72;5059174;28;20041;-53
2022/05/17 03:12:37;;;;;;;10.87;4.90;;;;;;;26.32;60.87;101874.34;5067519;28;20039;-50
2022/05/17 03:15:04;;;;;;;10.93;5.45;;;;;;;27.04;58.69;101876.03;5067088;28;20266;-50
2022/05/17 03:17:29;;;;;;;15.03;5.53;;;;;;;25.57;64.26;101865.56;5059779;28;20083;-53
2022/05/17 03:19:55;;;;;;;13.65;5.25;;;;;;;25.71;64.77;101867.78;5071221;28;20277;-52
2022/05/17 03:22:22;;;;;;;13.05;4.78;;;;;;;25.92;63.55;101865.84;5060972;28;20044;-52
2022/05/17 03:24:47;;;;;;;;;;;;;;;26.61;60.02;101876.47;5075617;28;20096;-54
2022/05/17 03:27:17;;;;;;;10.67;4.63;;;;;;;26.30;60.69;101871.88;5062074;28;19917;-54
2022/05/17 03:29:43;;;;;;;15.07;5.10;;;;;;;26.08;62.24;101863.94;5071666;28;20097;-53
2022/05/17 03:32:10;;;;;;;12.75;5.60;;;;;;;26.12;62.46;101873.25;5059249;28;20278;-47
2022/05/17 03:34:35;;;;;;;16.35;5.47;;;;;;;26.64;59.42;101873.16;5067286;28;20071;-48
2022/05/17 03:37:03;;;;;;;12.87;4.97;;;;;;;25.64;64.89;101859.84;5066545;28;20052;-52
2022/05/17 03:39:28;;;;;;;18.45;5.28;;;;;;;25.29;67.18;101870.44;5059806;28;20282;-54
2022/05/17 03:41:54;;;;;;;12.63;5.03;;;;;;;25.46;66.94;101866.66;5056571;28;20041;-54
2022/05/17 03:44:19;;;;;;;17.65;5.22;;;;;;;25.74;65.29;101869.97;5069189;28;20282;-53
2022/05/17 03:46:45;;;;;;;18.42;5.70;;;;;;;25.72;65.49;101866.69;5063740;28;20101;-49
2022/05/17 03:49:10;;;;;;;9.02;4.85;;;;;;;25.76;65.15;101870.53;5061670;28;20034;-52
2022/05/17 03:51:36;;;;;;;16.25;5.80;;;;;;;25.89;63.49;101871.88;5070627;28;20033;-53
2022/05/17 03:54:02;;;;;;;15.02;5.80;;;;;;;25.80;63.69;101863.41;5057760;28;20051;-51
2022/05/17 03:56:28;;;;;;;32.03;16.35;;;;;;;26.09;62.63;101865.59;5067688;28;20068;-50
2022/05/17 03:58:53;;;;;;;13.55;6.30;;;;;;;26.24;61.76;101872.16;5064727;28;20037;-50
2022/05/17 04:01:19;;;;;;;43.53;17.13;;;;;;;26.06;62.44;101877.06;5060899;28;20105;-49
2022/05/17 04:03:45;;;;;;;12.75;5.93;;;;;;;26.10;62.26;101872.72;5071812;28;20060;-49
2022/05/17 04:06:10;;;;;;;52.50;24.00;;;;;;;25.87;63.02;101880.41;5074774;28;20104;-50
2022/05/17 04:08:36;;;;;;;93.88;47.47;;;;;;;26.26;62.75;101872.69;5066489;28;20029;-52
2022/05/17 04:11:06;;;;;;;11.65;5.82;;;;;;;25.61;64.18;101877.66;5065894;28;20117;-51
2022/05/17 04:13:32;;;;;;;11.77;5.80;;;;;;;25.74;63.34;101880.94;5074168;28;20120;-53
2022/05/17 04:15:59;;;;;;;13.13;5.78;;;;;;;26.49;60.02;101885.81;5057021;28;20341;-50
2022/05/17 04:18:27;;;;;;;27.53;10.10;;;;;;;26.36;60.19;101889.16;5067987;28;20026;-52
2022/05/17 04:20:57;;;;;;;20.03;7.00;;;;;;;26.26;60.41;101886.41;5064289;28;20270;-51
2022/05/17 04:23:23;;;;;;;70.67;33.83;;;;;;;26.14;61.38;101894.88;5060047;28;20270;-50
2022/05/17 04:25:48;;;;;;;111.10;52.30;;;;;;;26.15;61.72;101885.56;5070558;28;20333;-53
2022/05/17 04:28:14;;;;;;;95.28;45.10;;;;;;;25.95;62.89;101891.91;5058728;28;20036;-51
2022/05/17 04:30:40;;;;;;;75.55;35.40;;;;;;;26.14;61.97;101887.50;5065857;28;20049;-54
2022/05/17 04:33:07;;;;;;;28.70;12.25;;;;;;;26.17;61.94;101878.75;5066001;28;20037;-51
2022/05/17 04:35:32;;;;;;;23.53;9.83;;;;;;;27.16;57.47;101890.25;5058649;28;20040;-50
2022/05/17 04:37:58;;;;;;;14.05;6.50;;;;;;;26.04;61.91;101882.84;5070439;28;20038;-51
2022/05/17 04:40:23;;;;;;;21.40;9.83;;;;;;;26.51;59.87;101890.19;5054325;28;20064;-52
2022/05/17 04:42:50;;;;;;;18.60;7.20;;;;;;;26.70;58.99;101895.91;5063440;28;20037;-47
2022/05/17 04:45:17;;;;;;;21.83;6.83;;;;;;;26.51;59.17;101898.41;5068160;28;20272;-53
2022/05/17 04:47:43;;;;;;;17.33;5.77;;;;;;;26.82;57.59;101903.81;5073999;28;20762;-54
2022/05/17 04:50:12;;;;;;;15.03;6.03;;;;;;;27.63;54.38;101904.50;5058072;28;20108;-51
2022/05/17 04:52:37;;;;;;;15.87;5.77;;;;;;;28.15;53.62;101901.38;5066614;28;20033;-54
2022/05/17 04:55:03;;;;;;;20.65;6.25;;;;;;;26.97;56.93;101903.75;5065448;28;20056;-54
2022/05/17 04:57:28;;;;;;;12.38;5.88;;;;;;;26.61;58.20;101912.91;5059528;28;20089;-48
2022/05/17 04:59:54;;;;;;;16.10;6.47;;;;;;;27.68;54.94;101911.06;5070675;28;20128;-49
2022/05/17 05:02:19;;;;;;;22.98;8.35;;;;;;;27.45;55.04;101907.91;5059339;28;20037;-48
2022/05/17 05:04:45;;;;;;;18.10;8.38;;;;;;;27.33;56.10;101913.75;5065542;28;20041;-49
2022/05/17 05:07:11;;;;;;;;;;;;;;;27.70;54.70;101917.13;5067057;28;20036;-53
2022/05/17 05:09:37;;;;;;;23.27;8.53;;;;;;;27.54;55.38;101914.47;5058107;28;19988;-52
2022/05/17 05:12:03;;;;;;;;;;;;;;;27.66;55.41;101916.03;5071050;28;20026;-54
2022/05/17 05:14:29;;;;;;;25.63;9.50;;;;;;;27.85;54.14;101933.47;5054195;28;19980;-50
2022/05/17 05:16:56;;;;;;;;;;;;;;;27.94;54.04;101933.69;5064587;28;20033;-49
2022/05/17 05:19:22;;;;;;;23.97;9.57;;;;;;;27.15;56.50;101937.19;5059962;28;19940;-51
2022/05/17 05:21:47;;;;;;;14.60;6.93;;;;;;;27.19;56.48;101938.25;5054470;28;20042;-53
2022/05/17 05:24:13;;;;;;;19.70;7.00;;;;;;;27.17;56.99;101937.72;5069651;28;20088;-53
2022/05/17 05:26:39;;;;;;;15.37;6.57;;;;;;;27.72;55.53;101931.41;5059151;28;20041;-50
2022/05/17 05:29:06;;;;;;;12.60;6.68;;;;;;;27.57;55.04;101935.06;5073271;28;20071;-51
2022/05/17 05:31:31;;;;;;;17.93;7.10;;;;;;;27.22;56.32;101943.22;5062143;28;20059;-53
2022/05/17 05:34:00;;;;;;;;;;;;;;;27.89;54.49;101937.28;5074075;28;20049;-52
2022/05/17 05:36:27;;;;;;;20.53;7.63;;;;;;;28.59;52.20;101948.22;5063222;28;19939;-49
2022/05/17 05:38:53;;;;;;;18.57;7.83;;;;;;;28.80;51.37;101946.09;5067414;28;20071;-50
2022/05/17 05:41:19;;;;;;;22.55;8.88;;;;;;;28.81;51.34;101952.41;5056349;28;20037;-53
2022/05/17 05:43:45;;;;;;;20.73;8.43;;;;;;;28.04;52.85;101957.53;5073486;28;20029;-53
2022/05/17 05:46:10;;;;;;;19.83;8.95;;;;;;;27.66;54.52;101960.81;5064455;28;20040;-53
2022/05/17 05:48:36;;;;;;;23.13;10.27;;;;;;;27.97;53.89;101959.78;5073263;28;20037;-51
2022/05/17 05:51:03;;;;;;;30.47;11.27;;;;;;;27.16;56.48;101956.13;5075404;28;20087;-48
2022/05/17 05:53:29;;;;;;;;;;;;;;;27.55;55.65;101957.31;5077308;28;20045;-51
2022/05/17 05:56:01;;;;;;;25.57;9.90;;;;;;;27.55;56.57;101961.97;5063475;28;19916;-51
2022/05/17 05:58:28;;;;;;;23.37;9.50;;;;;;;27.25;57.36;101961.84;5076282;28;20041;-52
2022/05/17 06:00:53;;;;;;;21.77;8.90;;;;;;;27.36;56.89;101962.63;5070661;28;20071;-51
2022/05/17 06:03:19;;;;;;;22.70;8.48;;;;;;;27.43;56.83;101968.63;5076603;28;20033;-53
2022/05/17 06:05:45;;;;;;;21.30;8.57;;;;;;;27.06;58.13;101972.63;5059507;28;20090;-53
2022/05/17 06:08:15;;;;;;;17.40;7.57;;;;;;;27.36;57.43;101965.38;5076355;28;20044;-49
2022/05/17 06:10:41;;;;;;;12.17;7.10;;;;;;;28.07;54.79;101965.19;5067966;28;20095;-54
2022/05/17 06:13:08;;;;;;;22.83;7.97;;;;;;;28.52;52.87;101970.59;5067596;28;20029;-50
2022/05/17 06:15:34;;;;;;;16.80;7.57;;;;;;;28.21;53.05;101967.31;5060732;28;20064;-48
2022/05/17 06:18:00;;;;;;;;;;;;;;;28.34;52.90;101972.13;5042305;28;20044;-50
2022/05/17 06:20:26;;;;;;;17.13;6.47;;;;;;;28.10;53.30;101977.56;5070598;28;19984;-50
2022/05/17 06:22:51;;;;;;;15.73;5.53;;;;;;;28.04;53.50;101971.25;5072408;28;20044;-50
2022/05/17 06:25:17;;;;;;;10.40;5.45;;;;;;;28.33;51.56;101973.25;5076336;28;20100;-52
2022/05/17 06:27:42;;;;;;;17.95;5.65;;;;;;;29.07;49.28;101974.16;5057499;28;20037;-52
2022/05/17 06:30:09;;;;;;;13.25;4.90;;;;;;;29.37;48.33;101972.09;5065829;28;20064;-50
2022/05/17 06:32:35;;;;;;;16.43;5.20;;;;;;;29.34;48.54;101968.81;5073914;28;20025;-53
2022/05/17 06:35:00;;;;;;;10.38;5.07;;;;;;;29.72;47.60;101972.72;5064829;28;20083;-48
2022/05/17 06:37:26;;;;;;;13.70;4.97;;;;;;;29.31;48.12;101972.19;5069156;28;20108;-48
2022/05/17 06:39:51;;;;;;;16.33;4.90;;;;;;;30.07;46.28;101987.09;5074202;28;20071;-52
2022/05/17 06:42:17;;;;;;;10.20;4.78;;;;;;;29.59;47.31;101972.38;5074571;28;20048;-52
2022/05/17 06:44:42;;;;;;;20.45;8.45;;;;;;;29.37;47.67;101983.13;5073287;28;20033;-49
2022/05/17 06:47:08;;;;;;;17.17;4.10;;;;;;;28.77;49.25;101983.25;5074110;28;20052;-53
2022/05/17 06:49:39;;;;;;;14.47;5.00;;;;;;;28.94;48.19;101981.16;5066405;28;20077;-52
2022/05/17 06:52:06;;;;;;;13.40;4.47;;;;;;;28.98;47.57;101980.28;5065799;28;20033;-51
2022/05/17 06:54:32;;;;;;;14.57;3.83;;;;;;;28.98;48.03;101988.56;5068580;28;20136;-51
2022/05/17 06:57:09;;;;;;;11.57;4.38;;;;;;;29.20;46.06;101995.44;5068061;28;20036;-51
2022/05/17 06:59:36;;;;;;;21.98;8.07;;;;;;;28.97;47.33;101986.91;5059110;28;20060;-50
2022/05/17 07:02:04;;;;;;;16.90;6.33;;;;;;;28.87;46.58;101987.84;5063324;28;20060;-51
2022/05/17 07:04:31;;;;;;;19.87;5.63;;;;;;;31.65;41.84;101990.13;5068948;28;20549;-50
2022/05/17 07:07:00;;;;;;;17.43;5.83;;;;;;;28.91;46.48;101990.84;5064660;28;20048;-50
2022/05/17 07:09:27;;;;;;;17.07;5.70;;;;;;;28.93;48.03;101987.78;5068773;28;20062;-50
2022/05/17 07:14:39;;;;;;;17.27;4.27;;;;;;;28.56;46.06;101987.31;5067200;28;20105;-48
2022/05/17 07:17:13;;;;;;;12.95;4.28;;;;;;;28.55;46.27;101989.28;5065879;28;20035;-53
2022/05/17 07:19:38;;;;;;;16.10;5.20;;;;;;;28.91;45.59;101986.16;5063639;28;20412;-52
2022/05/17 07:22:06;;;;;;;11.60;3.30;;;;;;;28.80;45.58;101995.66;5059820;28;20051;-53
2022/05/17 07:24:33;;;;;;;13.23;5.80;;;;;;;29.01;43.93;101993.47;5071245;28;20037;-50
2022/05/17 07:27:00;;;;;;;11.47;2.80;;;;;;;29.42;43.08;101989.41;5063257;28;20045;-47
2022/05/17 07:29:27;;;;;;;9.90;2.83;;;;;;;29.47;43.45;101994.03;5064062;28;20037;-48
2022/05/17 07:31:53;;;;;;;10.87;3.17;;;;;;;30.23;42.06;102000.63;5070950;28;20037;-50
2022/05/17 07:34:19;;;;;;;37.15;17.90;;;;;;;30.10;42.99;101993.94;5054832;28;20041;-51
2022/05/17 07:36:45;;;;;;;8.70;3.42;;;;;;;29.69;42.78;102001.72;5062238;28;20036;-52
2022/05/17 07:39:11;;;;;;;8.60;3.30;;;;;;;29.74;43.51;102006.31;5062898;28;20033;-52
2022/05/17 07:41:37;;;;;;;11.57;3.40;;;;;;;29.94;42.91;102013.47;5056486;28;20061;-52
2022/05/17 07:44:04;;;;;;;9.07;3.45;;;;;;;30.13;42.43;102007.13;5066025;28;20039;-50
2022/05/17 07:46:31;;;;;;;14.90;4.17;;;;;;;30.34;41.85;102007.59;5066081;28;20056;-53
2022/05/17 07:48:57;;;;;;;17.43;4.27;;;;;;;30.83;41.61;102005.34;5064518;28;20041;-50
2022/05/17 07:51:23;;;;;;;14.30;3.43;;;;;;;29.87;42.94;102000.06;5065372;28;20056;-49
2022/05/17 07:53:49;;;;;;;16.83;3.00;;;;;;;30.38;42.44;102005.88;5063103;28;20120;-52
2022/05/17 07:56:15;;;;;;;18.55;4.50;;;;;;;29.96;44.09;102002.94;5063476;28;20037;-49
2022/05/17 07:58:41;;;;;;;8.88;3.17;;;;;;;29.90;44.83;102001.41;5065728;28;20052;-53
2022/05/17 08:01:06;;;;;;;;;;;;;;;30.44;45.27;102003.84;5054579;28;20046;-49
2022/05/17 08:03:32;;;;;;;10.60;3.13;;;;;;;31.00;44.60;102007.50;5053890;28;19991;-52
2022/05/17 08:05:58;;;;;;;9.70;3.15;;;;;;;30.47;44.50;102015.09;5070146;28;20128;-51
2022/05/17 08:08:24;;;;;;;15.15;4.82;;;;;;;30.46;45.00;102010.69;5058545;28;20037;-53
2022/05/17 08:10:49;;;;;;;9.18;3.45;;;;;;;29.79;45.29;102009.00;5065798;28;20168;-49
2022/05/17 08:13:18;;;;;;;9.93;3.47;;;;;;;29.70;45.48;102011.63;5065823;28;20029;-51
2022/05/17 08:15:45;;;;;;;6.90;2.53;;;;;;;29.33;47.49;102005.75;5057649;28;20056;-51
2022/05/17 08:18:11;;;;;;;13.47;3.80;;;;;;;29.55;47.52;102007.16;5070573;28;20033;-53
2022/05/17 08:20:37;;;;;;;11.57;2.90;;;;;;;29.95;46.97;102017.03;5064017;28;20084;-52
2022/05/17 08:23:05;;;;;;;12.10;2.70;;;;;;;30.02;46.65;102015.56;5064052;28;20067;-53
2022/05/17 08:28:15;;;;;;;10.77;3.23;;;;;;;30.99;44.30;102018.84;5040999;28;20037;-51
2022/05/17 08:30:42;;;;;;;8.77;2.43;;;;;;;31.31;43.19;102023.44;5067473;28;20033;-52
2022/05/17 08:33:17;;;;;;;11.50;3.45;;;;;;;31.09;41.85;102023.34;5063162;28;20029;-51
2022/05/17 08:36:04;;;;;;;9.53;2.67;;;;;;;31.63;41.47;102026.34;5059644;28;20096;-53
2022/05/17 08:38:32;;;;;;;10.07;2.60;;;;;;;31.97;41.32;102024.22;5065618;28;20032;-51
2022/05/17 08:41:24;;;;;;;10.83;2.97;;;;;;;32.38;39.56;102023.22;5059565;28;20063;-50
2022/05/17 08:44:00;;;;;;;12.70;3.20;;;;;;;32.19;40.23;102015.13;5063967;28;20096;-49
2022/05/17 08:46:53;;;;;;;11.57;2.83;;;;;;;31.95;39.88;102016.25;5044179;28;20029;-52
2022/05/17 08:49:25;;;;;;;9.97;3.00;;;;;;;32.13;39.65;102014.41;5060978;28;20025;-51
2022/05/17 08:52:11;;;;;;;10.00;3.40;;;;;;;32.29;39.80;102014.00;5069787;28;20479;-55
2022/05/17 08:54:58;;;;;;;15.10;4.40;;;;;;;31.71;40.50;102016.50;5053584;28;20029;-48
2022/05/17 08:57:47;;;;;;;18.00;5.18;;;;;;;31.42;41.50;102020.47;5066054;28;20076;-51
2022/05/17 09:00:19;;;;;;;12.03;3.63;;;;;;;30.94;41.43;102011.50;5054278;28;20060;-51
2022/05/17 09:02:50;;;;;;;15.77;4.30;;;;;;;30.94;41.42;102011.50;5076561;28;20032;-49
2022/05/17 09:05:48;;;;;;;14.57;6.50;;;;;;;31.04;41.18;102019.56;5065393;28;20057;-51
2022/05/17 09:08:19;;;;;;;18.27;7.17;;;;;;;31.73;40.04;102008.72;5069126;28;20056;-52
2022/05/17 09:10:52;;;;;;;16.17;5.20;;;;;;;31.89;40.07;102007.25;5064913;28;20056;-53
2022/05/17 09:14:01;;;;;;;14.60;5.00;;;;;;;31.96;40.17;102006.00;5064204;28;20030;-53
2022/05/17 09:16:37;;;;;;;14.83;5.43;;;;;;;31.80;41.37;102013.84;5040146;28;20045;-53
2022/05/17 09:19:03;;;;;;;17.10;6.18;;;;;;;31.96;41.17;102006.81;5067272;28;20025;-52
2022/05/17 09:21:33;;;;;;;19.23;6.47;;;;;;;32.53;40.60;102018.44;5056595;28;20075;-49
2022/05/17 09:24:04;;;;;;;17.17;5.83;;;;;;;32.67;39.27;102018.34;5073072;28;20096;-53
2022/05/17 09:26:30;;;;;;;21.13;6.07;;;;;;;33.45;38.12;102015.00;5062247;28;20059;-51
2022/05/17 09:29:04;;;;;;;17.20;6.37;;;;;;;32.78;39.39;102016.09;5066721;28;20040;-54
2022/05/17 09:31:35;;;;;;;15.03;6.40;;;;;;;33.01;39.01;102014.91;5070851;28;20048;-56
2022/05/17 09:34:07;;;;;;;16.47;5.80;;;;;;;33.00;39.07;102004.13;5058512;28;20045;-51
2022/05/17 09:37:03;;;;;;;12.73;5.20;;;;;;;32.81;38.22;102018.22;5062074;28;20059;-54
2022/05/17 09:39:30;;;;;;;12.20;5.13;;;;;;;32.53;38.67;102023.97;5062403;28;20053;-54
2022/05/17 09:42:00;;;;;;;14.77;5.90;;;;;;;32.79;38.38;102021.31;5056675;28;20048;-50
2022/05/17 09:44:29;;;;;;;15.27;5.03;;;;;;;33.05;38.16;102015.06;5071135;28;20047;-54
2022/05/17 09:47:05;;;;;;;7.37;3.10;;;;;;;32.60;36.88;102030.66;5065063;28;20052;-55
2022/05/17 09:52:44;;;;;;;13.37;4.73;;;;;;;34.33;34.88;102025.22;5045566;28;20262;-54
2022/05/17 09:55:16;;;;;;;13.43;5.13;;;;;;;34.20;34.70;102017.94;5065259;28;20046;-54
2022/05/17 09:57:50;;;;;;;10.83;3.87;;;;;;;34.74;33.79;102012.69;5056159;28;20037;-55
2022/05/17 10:00:22;;;;;;;15.10;4.50;;;;;;;34.70;33.10;102006.19;5071385;28;20026;-52
2022/05/17 10:03:11;;;;;;;14.77;3.63;;;;;;;35.36;32.67;102009.56;5063260;28;20063;-51
2022/05/17 10:05:37;;;;;;;13.32;3.60;;;;;;;36.48;31.06;102017.59;5055458;28;20042;-53
2022/05/17 10:08:10;;;;;;;13.02;3.17;;;;;;;36.73;30.00;102022.03;5067329;28;20029;-53
2022/05/17 10:10:39;;;;;;;11.00;3.38;;;;;;;35.39;31.76;102008.91;5071522;28;20031;-54
2022/05/17 10:13:17;;;;;;;11.57;3.83;;;;;;;35.98;31.07;102009.06;5064457;28;20048;-54
2022/05/17 10:15:46;;;;;;;11.32;3.15;;;;;;;36.30;30.67;102004.66;5056662;28;20026;-53
2022/05/17 10:18:26;;;;;;;11.40;4.35;;;;;;;35.78;31.44;102003.22;5071471;28;20053;-51
2022/05/17 10:20:56;;;;;;;15.40;6.43;;;;;;;35.96;30.97;102003.88;5065909;28;20032;-55
2022/05/17 10:23:34;;;;;;;12.55;6.28;;;;;;;36.45;30.38;101997.63;5067929;28;20044;-50
2022/05/17 10:26:08;;;;;;;14.13;5.25;;;;;;;35.75;30.93;101998.31;5063058;28;20026;-53
2022/05/17 10:28:53;;;;;;;15.60;5.50;;;;;;;35.93;30.94;101995.38;5069993;28;20075;-53
2022/05/17 10:31:38;;;;;;;12.65;4.55;;;;;;;35.66;31.13;101989.25;5065400;28;20024;-51
2022/05/17 10:34:30;;;;;;;17.55;5.68;;;;;;;35.79;31.33;101996.50;5060786;28;20041;-54
2022/05/17 10:37:00;;;;;;;10.38;4.78;;;;;;;35.89;30.59;101981.34;5063762;28;20029;-50
2022/05/17 10:39:33;;;;;;;16.92;4.68;;;;;;;35.28;31.97;101982.66;5071563;28;20033;-49
2022/05/17 10:41:59;;;;;;;15.00;5.07;;;;;;;35.47;32.02;101982.19;5062191;28;20030;-53
2022/05/17 10:44:37;;;;;;;16.45;5.40;;;;;;;34.64;33.28;101979.75;5071133;28;20041;-53
2022/05/17 10:47:11;;;;;;;12.38;5.90;;;;;;;34.35;33.63;101981.28;5070929;28;20029;-51
2022/05/17 10:49:57;;;;;;;9.18;4.95;;;;;;;32.74;35.71;101985.44;5074278;28;20056;-51
2022/05/17 10:52:39;;;;;;;12.30;4.65;;;;;;;33.83;34.38;101979.44;5070255;28;20017;-51
2022/05/17 10:55:23;;;;;;;16.35;5.35;;;;;;;34.14;34.37;101968.16;5067017;28;20044;-51
2022/05/17 10:58:10;;;;;;;12.52;5.72;;;;;;;33.31;35.36;101970.78;5072100;28;20041;-54
2022/05/17 11:00:54;;;;;;;15.80;5.10;;;;;;;33.36;35.52;101955.94;5065862;28;20131;-49
2022/05/17 11:03:48;;;;;;;13.50;5.18;;;;;;;33.86;35.13;101968.50;5073293;28;20037;-52
2022/05/17 11:06:40;;;;;;;13.88;4.93;;;;;;;34.55;34.04;101962.31;5058330;28;20041;-49
2022/05/17 11:09:19;;;;;;;15.60;5.88;;;;;;;35.95;32.35;101962.44;5065939;28;20093;-49
2022/05/17 11:11:56;;;;;;;18.70;8.63;;;;;;;36.38;31.11;101966.72;5074972;28;20031;-53
2022/05/17 11:14:36;;;;;;;20.23;8.73;;;;;;;36.62;30.95;101970.72;5060240;28;20037;-54
2022/05/17 11:17:31;;;;;;;17.75;7.80;;;;;;;36.76;30.55;101958.41;5065576;28;20033;-50
2022/05/17 11:20:10;;;;;;;14.73;5.75;;;;;;;37.71;29.87;101955.25;5070510;28;20044;-53
2022/05/17 11:22:55;;;;;;;17.25;8.55;;;;;;;38.12;29.24;101952.38;5060079;28;20037;-48
2022/05/17 11:25:58;;;;;;;15.68;7.85;;;;;;;40.15;26.82;101947.50;5062713;28;20048;-48
2022/05/17 11:28:50;;;;;;;11.18;5.60;;;;;;;41.31;25.48;101952.03;5042826;28;20033;-49
2022/05/17 11:31:28;;;;;;;15.93;6.50;;;;;;;42.27;24.49;101949.78;5063257;28;20034;-52
2022/05/17 11:34:23;;;;;;;11.40;4.72;;;;;;;41.81;24.28;101939.72;5070804;28;20104;-50
2022/05/17 11:36:51;;;;;;;6.97;3.30;;;;;;;41.31;23.85;101940.00;5042504;28;20037;-52
2022/05/17 11:39:35;;;;;;;11.10;3.38;;;;;;;39.09;25.40;101929.91;5052536;28;20025;-48
2022/05/17 11:42:35;;;;;;;12.00;3.55;;;;;;;39.02;25.36;101927.75;5068737;28;20056;-50